createdAt,value
2023-03-22T00:00:30.541Z,8.23
2023-03-22T00:02:58.438Z,7.85
2023-03-22T00:05:25.952Z,7.18
2023-03-22T00:07:58.161Z,8.93
2023-03-22T00:10:27.635Z,7.80
2023-03-22T00:12:55.743Z,8.88
2023-03-22T00:15:23.730Z,6.60
2023-03-22T00:17:52.017Z,9.20
2023-03-22T00:20:20.864Z,12.93
2023-03-22T00:22:48.355Z,10.95
2023-03-22T00:25:16.192Z,8.80
2023-03-22T00:27:44.089Z,8.80
2023-03-22T00:30:12.127Z,7.70
2023-03-22T00:32:39.902Z,8.90
2023-03-22T00:35:08.134Z,8.98
2023-03-22T00:37:38.865Z,5.18
2023-03-22T00:40:12.476Z,6.53
2023-03-22T00:42:41.723Z,7.57
2023-03-22T00:45:11.558Z,5.35
2023-03-22T00:47:39.477Z,8.00
2023-03-22T00:50:07.900Z,7.43
2023-03-22T00:52:35.618Z,6.22
2023-03-22T00:55:03.223Z,6.43
2023-03-22T00:57:30.850Z,7.43
2023-03-22T00:59:58.635Z,4.90
2023-03-22T01:02:29.929Z,7.22
2023-03-22T01:04:58.016Z,5.68
2023-03-22T01:07:26.842Z,4.18
2023-03-22T01:09:54.850Z,6.70
2023-03-22T01:12:22.368Z,8.68
2023-03-22T01:14:49.970Z,7.10
2023-03-22T01:17:17.688Z,8.48
2023-03-22T01:19:45.493Z,7.15
2023-03-22T01:22:13.146Z,6.57
2023-03-22T01:24:40.966Z,7.68
2023-03-22T01:27:08.490Z,9.23
2023-03-22T01:29:36.057Z,5.75
2023-03-22T01:32:04.362Z,6.93
2023-03-22T01:34:32.342Z,8.85
2023-03-22T01:37:00.920Z,5.05
2023-03-22T01:39:29.773Z,7.70
2023-03-22T01:41:59.793Z,4.75
2023-03-22T01:44:30.942Z,8.35
2023-03-22T01:47:00.351Z,6.72
2023-03-22T01:49:34.636Z,6.35
2023-03-22T01:52:07.023Z,6.22
2023-03-22T01:54:54.397Z,3.50
2023-03-22T01:58:01.875Z,5.53
2023-03-22T02:00:41.162Z,5.28
2023-03-22T02:03:41.580Z,4.85
2023-03-22T02:06:11.916Z,5.07
2023-03-22T02:08:40.964Z,4.43
2023-03-22T02:11:25.363Z,4.95
2023-03-22T02:14:20.369Z,6.88
2023-03-22T02:18:18.672Z,4.85
2023-03-22T02:21:06.227Z,4.43
2023-03-22T02:23:54.517Z,4.00
2023-03-22T02:26:50.433Z,5.47
2023-03-22T02:29:34.055Z,5.43
2023-03-22T02:32:07.690Z,3.77
2023-03-22T02:35:02.136Z,5.50
2023-03-22T02:40:31.195Z,4.50
2023-03-22T02:43:11.106Z,5.65
2023-03-22T02:45:54.003Z,7.18
2023-03-22T02:48:30.989Z,3.65
2023-03-22T02:51:18.482Z,6.10
2023-03-22T02:54:03.985Z,5.97
2023-03-22T02:56:48.188Z,4.95
2023-03-22T02:59:19.965Z,4.67
2023-03-22T03:01:52.067Z,3.33
2023-03-22T03:04:30.408Z,5.38
2023-03-22T03:07:12.033Z,3.33
2023-03-22T03:09:42.183Z,6.32
2023-03-22T03:12:19.661Z,4.22
2023-03-22T03:14:47.421Z,3.50
2023-03-22T03:17:42.748Z,5.53
2023-03-22T03:20:30.265Z,3.83
2023-03-22T03:23:22.388Z,4.25
2023-03-22T03:26:17.340Z,5.70
2023-03-22T03:29:16.437Z,3.15
2023-03-22T03:32:04.729Z,3.75
2023-03-22T03:34:39.886Z,6.90
2023-03-22T03:37:18.791Z,5.75
2023-03-22T03:39:56.262Z,5.97
2023-03-22T03:42:27.627Z,4.75
2023-03-22T03:44:56.366Z,2.67
2023-03-22T03:47:25.419Z,9.05
2023-03-22T03:49:53.029Z,4.10
2023-03-22T03:52:24.747Z,7.07
2023-03-22T03:54:52.818Z,6.03
2023-03-22T03:57:27.333Z,4.90
2023-03-22T03:59:55.103Z,7.40
2023-03-22T04:02:44.556Z,3.50
2023-03-22T04:05:26.696Z,6.65
2023-03-22T04:07:54.237Z,4.68
2023-03-22T04:10:21.996Z,6.72
2023-03-22T04:12:49.605Z,7.40
2023-03-22T04:15:18.440Z,4.20
2023-03-22T04:17:54.022Z,10.20
2023-03-22T04:20:26.375Z,5.93
2023-03-22T04:22:56.952Z,5.72
2023-03-22T04:25:30.455Z,4.05
2023-03-22T04:28:10.866Z,7.80
2023-03-22T04:30:39.132Z,4.85
2023-03-22T04:33:32.669Z,5.60
2023-03-22T04:36:17.609Z,5.80
2023-03-22T04:39:10.831Z,4.32
2023-03-22T04:41:39.341Z,6.75
2023-03-22T04:44:07.887Z,8.15
2023-03-22T04:46:39.368Z,7.47
2023-03-22T04:49:07.809Z,6.22
2023-03-22T04:51:39.210Z,7.55
2023-03-22T04:54:23.440Z,7.85
2023-03-22T04:56:51.880Z,7.57
2023-03-22T04:59:22.237Z,7.80
2023-03-22T05:01:51.744Z,7.70
2023-03-22T05:04:23.120Z,7.00
2023-03-22T05:06:57.340Z,6.10
2023-03-22T05:09:31.788Z,7.65
2023-03-22T05:11:59.450Z,7.45
2023-03-22T05:14:48.912Z,6.85
2023-03-22T05:17:21.735Z,8.57
2023-03-22T05:19:52.041Z,5.75
2023-03-22T05:22:22.566Z,6.75
2023-03-22T05:24:52.012Z,6.85
2023-03-22T05:27:31.571Z,8.52
2023-03-22T05:30:25.466Z,7.90
2023-03-22T05:33:03.372Z,6.57
2023-03-22T05:35:36.415Z,6.15
2023-03-22T05:38:05.129Z,8.02
2023-03-22T05:40:35.482Z,10.02
2023-03-22T05:43:02.970Z,11.60
2023-03-22T05:45:32.701Z,9.90
2023-03-22T05:48:26.853Z,9.63
2023-03-22T05:50:54.629Z,8.88
2023-03-22T05:53:22.450Z,12.38
2023-03-22T05:56:10.067Z,11.27
2023-03-22T06:01:13.246Z,9.75
2023-03-22T06:03:48.590Z,11.90
2023-03-22T06:06:36.404Z,8.23
2023-03-22T06:09:17.290Z,10.77
2023-03-22T06:11:49.611Z,10.63
2023-03-22T06:14:17.836Z,7.10
2023-03-22T06:17:03.975Z,9.07
2023-03-22T06:19:31.965Z,10.10
2023-03-22T06:22:02.642Z,8.15
2023-03-22T06:24:32.185Z,9.35
2023-03-22T06:26:59.827Z,8.07
2023-03-22T06:29:28.463Z,10.45
2023-03-22T06:31:58.629Z,8.07
2023-03-22T06:34:26.622Z,8.65
2023-03-22T06:36:54.502Z,8.50
2023-03-22T06:39:34.815Z,8.00
2023-03-22T06:42:03.298Z,10.50
2023-03-22T06:44:30.922Z,7.28
2023-03-22T06:47:19.217Z,6.65
2023-03-22T06:49:58.573Z,6.00
2023-03-22T06:52:38.214Z,8.75
2023-03-22T06:55:08.604Z,7.53
2023-03-22T06:57:36.252Z,5.60
2023-03-22T07:00:05.400Z,7.07
2023-03-22T07:02:33.030Z,8.80
2023-03-22T07:05:18.923Z,7.60
2023-03-22T07:07:46.598Z,7.03
2023-03-22T07:10:14.034Z,7.22
2023-03-22T07:12:41.779Z,6.28
2023-03-22T07:15:13.005Z,7.80
2023-03-22T07:17:51.893Z,9.90
2023-03-22T07:20:19.872Z,7.10
2023-03-22T07:22:50.954Z,9.88
2023-03-22T07:25:20.950Z,9.70
2023-03-22T07:27:52.617Z,6.70
2023-03-22T07:30:22.393Z,8.18
2023-03-22T07:32:50.016Z,7.25
2023-03-22T07:35:19.085Z,6.57
2023-03-22T07:37:48.706Z,7.47
2023-03-22T07:40:23.618Z,12.00
2023-03-22T07:42:55.824Z,8.32
2023-03-22T07:45:55.991Z,7.43
2023-03-22T07:48:42.463Z,6.65
2023-03-22T07:51:39.532Z,6.32
2023-03-22T07:54:07.940Z,5.22
2023-03-22T07:56:35.728Z,7.75
2023-03-22T07:59:04.279Z,7.07
2023-03-22T08:01:31.778Z,5.75
2023-03-22T08:04:11.903Z,6.03
2023-03-22T08:07:02.885Z,6.38
2023-03-22T08:09:30.397Z,4.68
2023-03-22T08:11:58.015Z,4.93
2023-03-22T08:14:35.844Z,3.15
2023-03-22T08:17:06.900Z,3.83
2023-03-22T08:19:35.045Z,4.75
2023-03-22T08:22:03.446Z,2.60
2023-03-22T08:24:51.774Z,2.95
2023-03-22T08:27:31.644Z,4.70
2023-03-22T08:30:01.117Z,3.10
2023-03-22T08:32:28.672Z,3.38
2023-03-22T08:34:56.242Z,2.60
2023-03-22T08:37:23.944Z,2.15
2023-03-22T08:39:51.679Z,2.15
2023-03-22T08:42:26.743Z,1.75
2023-03-22T08:44:54.380Z,5.88
2023-03-22T08:47:25.017Z,1.30
2023-03-22T08:49:57.347Z,1.60
2023-03-22T08:52:35.779Z,1.88
2023-03-22T08:55:09.065Z,3.03
2023-03-22T08:58:04.321Z,2.33
2023-03-22T09:00:50.044Z,1.20
2023-03-22T09:03:43.909Z,2.40
2023-03-22T09:06:11.734Z,0.98
2023-03-22T09:08:42.164Z,1.67
2023-03-22T09:11:17.817Z,1.58
2023-03-22T09:13:48.744Z,1.63
2023-03-22T09:16:17.066Z,1.35
2023-03-22T09:18:45.948Z,1.35
2023-03-22T09:21:17.316Z,1.67
2023-03-22T09:23:56.615Z,1.33
2023-03-22T09:26:33.569Z,0.75
2023-03-22T09:29:01.154Z,2.03
2023-03-22T09:31:29.389Z,3.10
2023-03-22T09:34:07.689Z,1.30
2023-03-22T09:36:35.216Z,1.23
2023-03-22T09:39:06.818Z,2.90
2023-03-22T09:41:40.787Z,1.17
2023-03-22T09:44:16.088Z,0.57
2023-03-22T09:46:50.386Z,1.58
2023-03-22T09:49:24.576Z,1.63
2023-03-22T09:51:54.706Z,1.23
2023-03-22T09:54:39.210Z,1.45
2023-03-22T09:57:18.911Z,2.80
2023-03-22T09:59:52.486Z,0.95
2023-03-22T10:02:57.274Z,0.60
2023-03-22T10:08:27.841Z,1.63
2023-03-22T10:10:57.532Z,3.78
2023-03-22T10:13:37.015Z,1.85
2023-03-22T10:16:10.800Z,1.15
2023-03-22T10:18:43.865Z,0.70
2023-03-22T10:21:13.857Z,1.50
2023-03-22T10:23:49.468Z,0.63
2023-03-22T10:26:39.538Z,3.55
2023-03-22T10:29:24.032Z,3.45
2023-03-22T10:31:51.605Z,1.75
2023-03-22T10:34:33.789Z,2.00
2023-03-22T10:37:05.536Z,3.40
2023-03-22T10:39:38.654Z,5.05
2023-03-22T10:42:23.256Z,2.88
2023-03-22T10:44:55.580Z,1.53
2023-03-22T10:47:48.046Z,1.55
2023-03-22T10:50:22.771Z,1.10
2023-03-22T10:52:59.481Z,1.90
2023-03-22T10:55:27.068Z,2.05
2023-03-22T10:58:12.860Z,2.95
2023-03-22T11:00:49.572Z,1.67
2023-03-22T11:03:40.579Z,0.90
2023-03-22T11:06:12.599Z,2.08
2023-03-22T11:08:51.520Z,2.35
2023-03-22T11:11:45.310Z,2.10
2023-03-22T11:14:37.763Z,3.47
2023-03-22T11:17:19.921Z,1.65
2023-03-22T11:19:58.667Z,3.10
2023-03-22T11:22:39.593Z,1.25
2023-03-22T11:25:34.166Z,1.75
2023-03-22T11:28:04.407Z,1.48
2023-03-22T11:30:33.465Z,1.25
2023-03-22T11:33:15.310Z,3.08
2023-03-22T11:35:46.069Z,6.43
2023-03-22T11:38:36.756Z,6.18
2023-03-22T11:41:12.022Z,6.40
2023-03-22T11:43:48.583Z,5.07
2023-03-22T11:46:19.510Z,4.65
2023-03-22T11:48:50.665Z,4.93
2023-03-22T11:51:28.054Z,5.15
2023-03-22T11:54:01.682Z,3.97
2023-03-22T11:56:30.511Z,5.03
2023-03-22T11:59:05.148Z,3.22
2023-03-22T12:01:43.312Z,2.45
2023-03-22T12:04:17.248Z,4.97
2023-03-22T12:06:45.073Z,3.42
2023-03-22T12:09:29.025Z,6.13
2023-03-22T12:11:59.474Z,4.40
2023-03-22T12:14:39.351Z,3.63
2023-03-22T12:17:39.619Z,2.80
2023-03-22T12:20:20.442Z,5.70
2023-03-22T12:22:52.900Z,4.07
2023-03-22T12:26:04.566Z,2.05
2023-03-22T12:28:40.811Z,3.72
2023-03-22T12:31:21.838Z,2.20
2023-03-22T12:33:54.167Z,4.20
2023-03-22T12:36:52.667Z,1.98
2023-03-22T12:39:35.295Z,1.48
2023-03-22T12:42:17.970Z,1.17
2023-03-22T12:44:52.830Z,0.80
2023-03-22T12:47:38.491Z,0.90
2023-03-22T12:50:34.350Z,0.88
2023-03-22T12:53:04.556Z,0.90
2023-03-22T12:55:36.889Z,1.33
2023-03-22T12:58:08.847Z,0.68
2023-03-22T13:00:49.782Z,0.95
2023-03-22T13:03:20.299Z,3.97
2023-03-22T13:05:50.820Z,0.60
2023-03-22T13:08:22.591Z,1.25
2023-03-22T13:11:05.201Z,1.58
2023-03-22T13:13:41.775Z,2.10
2023-03-22T13:16:09.394Z,1.02
2023-03-22T13:18:37.741Z,1.95
2023-03-22T13:21:13.547Z,2.15
2023-03-22T13:24:20.965Z,2.40
2023-03-22T13:26:54.410Z,1.25
2023-03-22T13:29:26.123Z,3.80
2023-03-22T13:31:59.079Z,0.75
2023-03-22T13:34:45.000Z,1.53
2023-03-22T13:37:46.085Z,2.63
2023-03-22T13:40:36.535Z,1.75
2023-03-22T13:43:33.171Z,1.70
2023-03-22T13:46:09.686Z,1.40
2023-03-22T13:48:52.614Z,1.42
2023-03-22T13:51:25.363Z,0.80
2023-03-22T13:54:11.673Z,3.28
2023-03-22T13:56:44.670Z,1.98
2023-03-22T13:59:27.508Z,1.38
2023-03-22T14:02:22.206Z,2.03
2023-03-22T14:04:57.363Z,2.28
2023-03-22T14:07:45.049Z,1.92
2023-03-22T14:10:32.741Z,1.45
2023-03-22T14:13:23.936Z,0.85
2023-03-22T14:15:55.928Z,2.10
2023-03-22T14:18:32.140Z,2.92
2023-03-22T14:21:04.062Z,1.67
